Time;durP1;ratioP1;P1;durP2;ratioP2;P2;SDS_P1;SDS_P2;PMS_P1;PMS_P2;Temp;Humidity;BMP_temperature;BMP_pressure;BME280_temperature;BME280_humidity;BME280_pressure;Samples;Min_cycle;Max_cycle;Signal;HPM_P1;HPM_P2
2021/11/08 00:00:04;;;;;;;11.55;8.02;;;7.40;99.90;;;;;;6259037;28;20067;-89
2021/11/08 00:03:07;;;;;;;9.93;8.43;;;7.40;99.90;;;;;;6248495;28;20608;-88
2021/11/08 00:06:07;;;;;;;9.00;8.10;;;7.40;99.90;;;;;;6259259;28;20382;-88
2021/11/08 00:09:10;;;;;;;9.77;7.55;;;;;;;;;;6260522;28;20032;-88
2021/11/08 00:12:11;;;;;;;;;;;7.40;99.90;;;;;;6277054;28;20033;-88
2021/11/08 00:15:16;;;;;;;7.90;7.03;;;8.00;99.90;;;;;;6278693;28;19912;-89
2021/11/08 00:18:30;;;;;;;9.38;7.75;;;7.40;99.90;;;;;;6252076;28;20028;-87
2021/11/08 00:21:33;;;;;;;8.30;7.43;;;7.70;99.90;;;;;;6256024;28;20040;-88
2021/11/08 00:24:37;;;;;;;7.65;6.70;;;9.30;99.90;;;;;;6251631;28;20033;-90
2021/11/08 00:27:39;;;;;;;8.88;7.07;;;7.80;99.90;;;;;;6272551;28;20080;-88
2021/11/08 00:30:39;;;;;;;8.30;7.22;;;7.80;99.90;;;;;;6280450;28;20471;-88
2021/11/08 00:33:40;;;;;;;7.25;6.53;;;7.60;99.90;;;;;;6262802;28;20040;-88
2021/11/08 00:36:41;;;;;;;7.90;6.53;;;;;;;;;;6272394;28;20036;-87
2021/11/08 00:39:42;;;;;;;7.70;6.78;;;;;;;;;;6295786;28;20089;-88
2021/11/08 00:42:43;;;;;;;7.07;6.38;;;;;;;;;;6296746;28;20037;-90
2021/11/08 00:45:44;;;;;;;7.82;7.00;;;;;;;;;;6291139;28;20043;-88
2021/11/08 00:48:45;;;;;;;7.00;6.32;;;7.40;99.90;;;;;;6304000;28;20059;-90
2021/11/08 00:51:46;;;;;;;7.57;6.50;;;7.70;99.90;;;;;;6286555;28;20253;-89
2021/11/08 00:54:47;;;;;;;7.03;6.32;;;7.80;99.90;;;;;;6264061;28;20083;-88
2021/11/08 00:57:49;;;;;;;8.45;6.78;;;7.20;99.90;;;;;;6286305;28;20040;-89
2021/11/08 01:00:51;;;;;;;7.53;6.72;;;;;;;;;;6258821;28;20028;-87
2021/11/08 01:03:52;;;;;;;6.72;6.03;;;;;;;;;;6290274;28;20025;-87
2021/11/08 01:06:58;;;;;;;7.47;6.60;;;7.10;99.90;;;;;;6308171;28;20055;-87
2021/11/08 01:09:59;;;;;;;7.28;6.55;;;7.30;99.90;;;;;;6265888;28;20081;-87
2021/11/08 01:13:00;;;;;;;9.98;7.25;;;7.20;99.90;;;;;;6264985;28;20484;-87
2021/11/08 01:16:01;;;;;;;8.90;7.43;;;;;;;;;;6277568;28;20039;-88
2021/11/08 01:19:02;;;;;;;10.57;7.88;;;;;;;;;;6298593;28;20033;-88
2021/11/08 01:22:06;;;;;;;9.73;7.35;;;7.30;99.90;;;;;;6290167;28;20044;-88
2021/11/08 01:25:08;;;;;;;7.82;6.93;;;7.20;99.90;;;;;;6264497;28;20509;-88
2021/11/08 01:28:10;;;;;;;7.78;6.95;;;;;;;;;;6263985;28;20379;-86
2021/11/08 01:31:12;;;;;;;8.30;6.95;;;;;;;;;;6275715;28;20037;-88
2021/11/08 01:34:13;;;;;;;7.40;6.55;;;7.10;99.90;;;;;;6296670;28;20083;-87
2021/11/08 01:37:16;;;;;;;8.25;7.40;;;7.10;99.90;;;;;;6259604;28;20033;-88
2021/11/08 01:40:17;;;;;;;8.15;7.13;;;7.60;99.90;;;;;;6286656;28;20067;-87
2021/11/08 01:50:58;;;;;;;7.45;6.60;;;7.10;99.90;;;;;;6637081;22;20049;-88
2021/11/08 01:54:00;;;;;;;9.30;6.70;;;8.50;99.90;;;;;;6256816;28;20055;-86
2021/11/08 01:57:01;;;;;;;7.97;6.80;;;;;;;;;;6256268;28;20044;-86
2021/11/08 02:00:04;;;;;;;8.02;6.90;;;6.70;99.90;;;;;;6272274;28;20108;-87
2021/11/08 02:03:05;;;;;;;7.15;6.45;;;6.70;99.90;;;;;;6256017;28;20040;-89
2021/11/08 02:06:06;;;;;;;7.68;6.85;;;7.20;99.90;;;;;;6268023;28;20366;-87
2021/11/08 02:09:06;;;;;;;8.20;7.30;;;6.50;99.90;;;;;;6255530;28;20076;-88
2021/11/08 02:12:09;;;;;;;10.95;7.70;;;6.40;99.90;;;;;;6250012;28;20109;-88
2021/11/08 02:15:13;;;;;;;8.45;7.65;;;6.50;99.90;;;;;;6251359;28;20056;-85
2021/11/08 02:18:14;;;;;;;10.95;8.77;;;;;;;;;;6269590;28;20020;-88
2021/11/08 02:21:15;;;;;;;9.37;8.37;;;6.20;99.90;;;;;;6289248;28;20245;-86
2021/11/08 02:24:17;;;;;;;10.43;8.98;;;;;;;;;;6255483;28;20714;-88
2021/11/08 02:27:19;;;;;;;10.25;8.50;;;;;;;;;;6266632;28;20509;-87
2021/11/08 02:30:22;;;;;;;9.55;8.35;;;6.20;99.90;;;;;;6281145;28;20032;-88
2021/11/08 02:33:25;;;;;;;11.27;8.52;;;6.30;99.90;;;;;;6288932;28;20039;-87
2021/11/08 02:36:26;;;;;;;10.20;9.02;;;6.20;99.90;;;;;;6269889;28;20036;-88
2021/11/08 02:39:37;;;;;;;9.90;7.13;;;;;;;;;;6249505;28;20077;-88
2021/11/08 02:42:38;;;;;;;8.80;6.95;;;6.40;99.90;;;;;;6263808;28;20112;-89
2021/11/08 02:45:39;;;;;;;9.98;6.47;;;;;;;;;;6263605;28;20036;-88
2021/11/08 02:48:42;;;;;;;10.90;6.82;;;6.10;99.90;;;;;;6267799;28;20044;-86
2021/11/08 02:51:47;;;;;;;12.35;7.07;;;6.30;99.90;;;;;;6250724;28;20083;-88
2021/11/08 02:54:51;;;;;;;10.55;6.95;;;6.50;99.90;;;;;;6249953;28;20165;-87
2021/11/08 02:57:52;;;;;;;9.77;7.47;;;6.20;99.90;;;;;;6257788;28;20028;-87
2021/11/08 03:00:54;;;;;;;14.65;8.20;;;6.30;99.90;;;;;;6253444;28;20502;-87
2021/11/08 03:03:58;;;;;;;12.65;7.72;;;;;;;;;;6255206;28;20467;-88
2021/11/08 03:06:59;;;;;;;8.63;7.25;;;;;;;;;;6275249;28;20123;-88
2021/11/08 03:10:02;;;;;;;7.65;6.90;;;6.30;99.90;;;;;;6263409;28;20412;-88
2021/11/08 03:13:12;;;;;;;13.32;7.90;;;6.30;99.90;;;;;;6267907;28;20036;-88
2021/11/08 03:16:21;;;;;;;7.13;6.43;;;6.10;99.90;;;;;;6270862;28;20086;-89
2021/11/08 03:22:32;;;;;;;10.88;8.20;;;6.20;99.90;;;;;;6274611;28;20033;-88
2021/11/08 03:28:36;;;;;;;8.63;7.30;;;;;;;;;;6269713;28;20385;-88
2021/11/08 03:31:39;;;;;;;9.25;7.10;;;6.10;99.90;;;;;;6268416;28;20043;-87
2021/11/08 03:34:46;;;;;;;10.77;7.53;;;6.00;99.90;;;;;;6245737;28;20047;-87
2021/11/08 03:37:47;;;;;;;14.73;7.97;;;6.10;99.90;;;;;;6267865;28;20091;-87
2021/11/08 03:40:48;;;;;;;11.15;9.15;;;;;;;;;;6263519;28;20040;-87
2021/11/08 03:43:49;;;;;;;11.80;7.50;;;5.70;99.90;;;;;;6279639;28;20032;-87
2021/11/08 03:46:50;;;;;;;9.50;7.63;;;;;;;;;;6256208;28;20499;-87
2021/11/08 03:49:51;;;;;;;8.63;6.35;;;;;;;;;;6279477;28;20493;-87
2021/11/08 03:52:51;;;;;;;12.25;6.85;;;6.00;99.90;;;;;;6275050;28;20089;-87
2021/11/08 03:55:53;;;;;;;11.10;6.00;;;;;;;;;;6258039;28;20044;-87
2021/11/08 03:58:54;;;;;;;11.50;5.07;;;;;;;;;;6275842;28;20113;-87
2021/11/08 04:01:55;;;;;;;7.93;5.18;;;;;;;;;;6290201;28;20458;-87
2021/11/08 04:04:56;;;;;;;12.43;4.80;;;5.20;99.90;;;;;;6272791;28;20036;-87
2021/11/08 04:07:57;;;;;;;12.60;5.43;;;5.20;99.90;;;;;;6257580;28;20072;-87
2021/11/08 04:10:57;;;;;;;7.80;4.85;;;4.80;99.90;;;;;;6257890;28;20027;-87
2021/11/08 04:13:58;;;;;;;8.23;4.97;;;4.70;99.90;;;;;;6256952;28;20481;-87
2021/11/08 04:16:59;;;;;;;9.52;4.50;;;;;;;;;;6248537;28;20036;-86
2021/11/08 04:20:01;;;;;;;14.18;5.65;;;4.50;99.90;;;;;;6275245;28;20033;-88
2021/11/08 04:23:03;;;;;;;13.30;4.87;;;4.50;99.90;;;;;;6254374;28;20048;-86
2021/11/08 04:26:05;;;;;;;16.25;6.80;;;;;;;;;;6253882;28;20035;-87
2021/11/08 04:29:06;;;;;;;12.90;5.63;;;;;;;;;;6270804;28;20029;-88
2021/11/08 04:32:08;;;;;;;11.48;5.28;;;4.30;99.90;;;;;;6270511;28;20066;-87
2021/11/08 04:35:14;;;;;;;17.83;6.18;;;4.50;99.90;;;;;;6280542;28;20039;-87
2021/11/08 04:41:27;;;;;;;15.60;5.10;;;;;;;;;;6287988;28;20029;-89
2021/11/08 04:47:59;;;;;;;13.70;4.85;;;;;;;;;;6270114;28;20406;-87
2021/11/08 04:51:08;;;;;;;9.88;4.60;;;4.30;99.90;;;;;;6277616;28;20045;-88
2021/11/08 04:57:35;;;;;;;8.88;4.57;;;;;;;;;;6276314;28;20028;-88
2021/11/08 05:32:56;;;;;;;11.40;5.82;;;;;;;;;;6267031;28;20066;-88
2021/11/08 05:35:57;;;;;;;28.30;18.92;;;;;;;;;;6269865;28;20028;-86
2021/11/08 05:38:58;;;;;;;19.20;13.20;;;3.40;99.90;;;;;;6282818;28;20037;-83
2021/11/08 05:42:02;;;;;;;11.80;7.07;;;;;;;;;;6246052;28;20039;-86
2021/11/08 05:45:04;;;;;;;13.70;8.55;;;3.50;99.90;;;;;;6270619;28;20031;-88
2021/11/08 05:48:05;;;;;;;18.27;9.13;;;3.50;99.90;;;;;;6250456;28;20052;-86
2021/11/08 05:51:06;;;;;;;17.27;7.25;;;3.30;99.90;;;;;;6235271;28;20048;-83
2021/11/08 05:54:06;;;;;;;10.05;5.20;;;3.10;99.90;;;;;;6258045;28;20382;-86
2021/11/08 06:50:55;;;;;;;9.30;7.28;;;2.60;99.90;;;;;;6257725;28;20092;-84
2021/11/08 06:54:01;;;;;;;13.95;5.85;;;;;;;;;;6236909;28;20043;-81
2021/11/08 06:57:11;;;;;;;14.82;5.55;;;;;;;;;;6277807;28;20039;-84
2021/11/08 07:00:15;;;;;;;9.70;5.60;;;2.70;99.90;;;;;;6267398;28;20140;-85
2021/11/08 07:03:16;;;;;;;12.55;5.78;;;2.60;99.90;;;;;;6272933;28;20044;-83
2021/11/08 07:06:17;;;;;;;10.98;6.18;;;;;;;;;;6268944;28;20115;-87
2021/11/08 07:09:18;;;;;;;11.75;6.32;;;;;;;;;;6261832;28;20051;-88
2021/11/08 07:12:19;;;;;;;15.65;5.45;;;2.80;99.90;;;;;;6254028;28;20418;-86
2021/11/08 07:15:20;;;;;;;10.88;5.90;;;;;;;;;;6238870;28;20112;-86
2021/11/08 07:18:21;;;;;;;14.50;5.32;;;;;;;;;;6271424;28;20090;-88
2021/11/08 07:21:22;;;;;;;12.52;5.32;;;;;;;;;;6251159;28;20032;-89
2021/11/08 07:24:23;;;;;;;12.48;5.30;;;;;;;;;;6251223;28;20067;-86
2021/11/08 07:27:24;;;;;;;13.23;5.00;;;4.00;99.90;;;;;;6276838;28;20051;-85
2021/11/08 07:30:25;;;;;;;9.25;5.63;;;4.60;99.90;;;;;;6236333;28;20379;-88
2021/11/08 07:33:27;;;;;;;11.15;5.40;;;5.60;99.90;;;;;;6250916;28;20028;-82
2021/11/08 07:36:28;;;;;;;8.68;4.45;;;;;;;;;;6272558;28;20566;-86
2021/11/08 07:39:29;;;;;;;8.63;4.22;;;;;;;;;;6279918;28;20108;-86
2021/11/08 07:42:29;;;;;;;10.60;4.35;;;7.10;99.90;;;;;;6272092;28;20036;-89
2021/11/08 07:45:30;;;;;;;6.80;4.55;;;;;;;;;;6269462;28;20067;-86
2021/11/08 07:48:31;;;;;;;8.00;3.85;;;7.80;99.90;;;;;;6252192;28;20052;-87
2021/11/08 07:51:31;;;;;;;9.25;4.35;;;8.20;99.90;;;;;;6274313;28;20105;-84
2021/11/08 07:54:32;;;;;;;10.63;4.43;;;;;;;;;;6280065;28;20059;-84
2021/11/08 07:57:33;;;;;;;9.77;4.90;;;;;;;;;;6271497;28;20041;-85
2021/11/08 08:00:35;;;;;;;7.70;4.32;;;9.50;99.90;;;;;;6285420;28;20028;-85
2021/11/08 08:03:36;;;;;;;8.70;4.38;;;9.90;99.90;;;;;;6267691;28;20466;-85
2021/11/08 08:06:36;;;;;;;9.77;4.63;;;10.30;99.90;;;;;;6238781;28;20057;-83
2021/11/08 08:09:38;;;;;;;9.43;4.43;;;;;;;;;;6249915;28;20455;-83
2021/11/08 08:12:39;;;;;;;4.78;3.03;;;;;;;;;;6269926;28;20047;-83
2021/11/08 08:15:40;;;;;;;8.93;4.80;;;;;;;;;;6250843;28;20025;-82
2021/11/08 08:18:42;;;;;;;9.65;4.70;;;11.80;99.90;;;;;;6250507;28;20083;-83
2021/11/08 08:21:44;;;;;;;8.15;4.28;;;;;;;;;;6253313;28;20386;-82
2021/11/08 08:24:45;;;;;;;12.02;4.55;;;;;;;;;;6265421;28;20033;-84
2021/11/08 08:27:46;;;;;;;7.18;4.03;;;;;;;;;;6263731;28;20052;-81
2021/11/08 08:30:47;;;;;;;7.80;3.85;;;;;;;;;;6284727;28;20024;-83
2021/11/08 08:33:48;;;;;;;8.82;3.72;;;10.80;99.90;;;;;;6270245;28;20037;-82
2021/11/08 08:36:49;;;;;;;6.47;3.78;;;;;;;;;;6253507;28;20075;-83
2021/11/08 08:39:50;;;;;;;11.02;4.00;;;;;;;;;;6278773;28;20112;-82
2021/11/08 08:42:51;;;;;;;6.53;4.07;;;;;;;;;;6267952;28;20032;-79
2021/11/08 08:45:51;;;;;;;10.93;4.32;;;11.60;99.90;;;;;;6268426;28;20037;-82
2021/11/08 08:48:53;;;;;;;9.98;4.07;;;;;;;;;;6261676;28;20148;-85
2021/11/08 08:51:54;;;;;;;9.27;3.77;;;;;;;;;;6288534;28;20076;-83
2021/11/08 08:54:55;;;;;;;12.23;4.00;;;12.40;99.90;;;;;;6291790;28;20278;-81
2021/11/08 08:57:56;;;;;;;7.85;4.28;;;;;;;;;;6284138;28;20123;-83
2021/11/08 09:00:58;;;;;;;7.32;3.58;;;12.50;99.90;;;;;;6300549;28;20646;-85
2021/11/08 09:03:58;;;;;;;12.73;3.80;;;12.60;99.90;;;;;;6271474;28;20036;-81
2021/11/08 09:06:59;;;;;;;10.25;3.33;;;13.00;99.90;;;;;;6260824;28;20052;-78
2021/11/08 09:10:00;;;;;;;7.15;3.63;;;;;;;;;;6295997;28;20035;-78
2021/11/08 09:13:01;;;;;;;8.35;3.90;;;13.20;99.90;;;;;;6296373;28;20025;-77
2021/11/08 09:16:02;;;;;;;10.43;4.88;;;13.90;99.90;;;;;;6261381;28;20514;-79
2021/11/08 09:19:03;;;;;;;11.05;3.70;;;14.00;99.90;;;;;;6264489;28;20028;-78
2021/11/08 09:22:04;;;;;;;9.13;4.07;;;14.20;99.90;;;;;;6278642;28;20063;-78
2021/11/08 09:25:06;;;;;;;6.95;3.63;;;14.60;99.30;;;;;;6278011;28;20025;-80
2021/11/08 09:28:06;;;;;;;10.13;5.20;;;15.10;99.90;;;;;;6271747;28;20040;-78
2021/11/08 09:31:07;;;;;;;11.00;3.40;;;15.10;96.50;;;;;;6260800;28;20040;-79
2021/11/08 09:34:10;;;;;;;10.95;3.80;;;15.80;94.70;;;;;;6284836;28;20044;-81
2021/11/08 09:37:13;;;;;;;9.18;3.90;;;16.20;94.30;;;;;;6294663;28;20032;-79
2021/11/08 09:40:23;;;;;;;8.38;3.22;;;16.40;92.30;;;;;;6278491;28;20094;-79
2021/11/08 09:43:24;;;;;;;10.40;4.57;;;19.10;91.40;;;;;;6295064;28;20119;-81
2021/11/08 09:46:25;;;;;;;11.98;5.45;;;17.10;88.80;;;;;;6284719;28;20039;-78
2021/11/08 09:49:26;;;;;;;8.75;3.97;;;17.10;83.90;;;;;;6281916;28;20054;-82
2021/11/08 09:52:27;;;;;;;13.60;4.13;;;17.70;86.40;;;;;;6277568;28;20032;-79
2021/11/08 09:55:28;;;;;;;13.13;6.50;;;18.10;84.40;;;;;;6261056;28;20067;-79
2021/11/08 09:58:28;;;;;;;13.10;4.50;;;18.70;83.50;;;;;;6260505;28;20040;-79
2021/11/08 10:01:31;;;;;;;9.85;4.10;;;18.60;80.10;;;;;;6267315;28;20062;-80
2021/11/08 10:04:31;;;;;;;13.45;5.60;;;19.00;79.30;;;;;;6301206;28;20057;-80
2021/11/08 10:07:32;;;;;;;10.27;5.10;;;19.40;72.50;;;;;;6318843;28;20044;-79
2021/11/08 10:10:33;;;;;;;9.55;4.28;;;19.40;72.90;;;;;;6284128;28;20042;-79
2021/11/08 10:13:34;;;;;;;14.00;4.95;;;;;;;;;;6284570;28;20063;-80
2021/11/08 10:16:35;;;;;;;11.75;3.25;;;19.40;70.90;;;;;;6300714;28;20077;-82
2021/11/08 10:19:37;;;;;;;11.70;4.32;;;19.30;71.80;;;;;;6318780;28;20082;-81
2021/11/08 10:22:37;;;;;;;8.43;3.92;;;19.50;70.10;;;;;;6280289;28;20028;-79
2021/11/08 10:25:39;;;;;;;7.97;3.70;;;19.00;70.00;;;;;;6300451;28;20046;-82
2021/11/08 10:28:40;;;;;;;14.38;3.35;;;18.80;70.20;;;;;;6318395;28;20389;-80
2021/11/08 10:31:47;;;;;;;8.75;3.35;;;18.50;88.10;;;;;;6280386;28;20032;-79
2021/11/08 10:34:53;;;;;;;11.50;3.50;;;18.40;68.10;;;;;;6274968;28;20475;-80
2021/11/08 10:37:53;;;;;;;8.90;4.28;;;18.50;70.80;;;;;;6275106;28;20048;-83
2021/11/08 10:40:56;;;;;;;6.78;3.80;;;18.60;70.80;;;;;;6274042;28;20038;-81
2021/11/08 10:44:21;;;;;;;8.77;3.20;;;18.70;68.80;;;;;;6294860;28;20031;-81
2021/11/08 10:47:22;;;;;;;8.43;3.70;;;18.60;69.80;;;;;;6303375;28;20039;-81
2021/11/08 10:50:22;;;;;;;24.80;10.20;;;18.60;71.50;;;;;;6299053;28;20432;-81
2021/11/08 10:53:23;;;;;;;16.17;6.05;;;18.80;68.20;;;;;;6244085;28;20371;-81
2021/11/08 10:56:38;;;;;;;9.45;4.03;;;19.00;68.10;;;;;;6275525;28;20052;-84
2021/11/08 10:59:46;;;;;;;14.50;4.82;;;18.70;67.70;;;;;;6276204;28;20025;-84
2021/11/08 11:02:47;;;;;;;12.40;4.22;;;18.50;69.40;;;;;;6276774;28;20029;-82
2021/11/08 11:05:55;;;;;;;9.10;3.60;;;18.50;69.90;;;;;;6261159;28;20031;-84
2021/11/08 11:09:00;;;;;;;11.48;4.07;;;18.60;67.10;;;;;;6262929;28;20082;-85
2021/11/08 11:12:22;;;;;;;7.88;4.05;;;18.10;70.10;;;;;;6248009;28;20036;-87
2021/11/08 11:15:24;;;;;;;9.40;4.00;;;17.80;71.00;;;;;;6261381;28;20029;-86
2021/11/08 11:18:25;;;;;;;9.48;3.28;;;;;;;;;;6265468;28;20028;-87
2021/11/08 11:21:25;;;;;;;9.15;3.63;;;17.70;68.90;;;;;;6275713;28;20032;-86
2021/11/08 11:24:41;;;;;;;8.88;3.47;;;17.40;66.90;;;;;;6263705;28;20111;-87
2021/11/08 11:27:50;;;;;;;9.77;3.65;;;17.30;67.70;;;;;;6264450;28;20064;-88
2021/11/08 11:30:51;;;;;;;5.78;3.55;;;16.60;70.30;;;;;;6262771;28;20044;-87
2021/11/08 11:33:54;;;;;;;6.70;3.40;;;16.50;71.60;;;;;;6248005;28;20064;-90
2021/11/08 11:36:54;;;;;;;6.72;3.30;;;16.30;72.30;;;;;;6249713;28;20378;-89
2021/11/08 11:40:08;;;;;;;6.15;3.17;;;16.50;75.80;;;;;;6247739;28;20058;-88
2021/11/08 11:43:10;;;;;;;6.75;3.42;;;17.20;72.50;;;;;;6269821;28;20085;-90
2021/11/08 11:46:30;;;;;;;7.25;3.35;;;17.10;68.30;;;;;;6280154;28;20048;-87
2021/11/08 11:49:32;;;;;;;9.48;3.80;;;16.90;66.10;;;;;;6263866;28;20048;-89
2021/11/08 11:52:38;;;;;;;;;;;16.80;70.10;;;;;;6268738;28;20612;-87
2021/11/08 11:55:39;;;;;;;7.25;2.85;;;15.80;68.10;;;;;;6268481;28;20358;-88
2021/11/08 11:58:40;;;;;;;8.55;3.60;;;;;;;;;;6251912;28;20036;-89
2021/11/08 12:01:41;;;;;;;6.25;3.33;;;;;;;;;;6285113;28;20486;-89
2021/11/08 12:04:42;;;;;;;9.80;2.63;;;;;;;;;;6270624;28;20039;-88
2021/11/08 12:07:43;;;;;;;4.82;2.95;;;14.40;66.50;;;;;;6284931;28;20032;-88
2021/11/08 12:10:45;;;;;;;7.93;3.78;;;13.80;90.10;;;;;;6251962;28;20086;-89
2021/11/08 12:13:54;;;;;;;10.75;4.10;;;14.30;74.10;;;;;;6253634;28;20032;-88
2021/11/08 12:17:01;;;;;;;6.03;3.28;;;13.80;73.40;;;;;;6269506;28;20064;-88
2021/11/08 12:20:24;;;;;;;7.85;3.13;;;14.20;71.90;;;;;;6273227;28;20042;-88
2021/11/08 12:23:28;;;;;;;6.20;3.38;;;14.00;74.70;;;;;;6286261;28;20027;-87
2021/11/08 12:26:30;;;;;;;7.43;3.45;;;14.30;75.90;;;;;;6251426;28;20040;-85
2021/11/08 12:29:31;;;;;;;7.10;3.22;;;13.90;72.00;;;;;;6252581;28;20041;-86
2021/11/08 12:32:52;;;;;;;9.48;3.33;;;14.10;75.50;;;;;;6267772;28;20467;-88
2021/11/08 12:36:16;;;;;;;7.15;2.70;;;13.60;69.20;;;;;;6287976;28;20044;-87
2021/11/08 12:39:17;;;;;;;7.78;3.15;;;13.40;75.10;;;;;;6254249;28;20466;-87
2021/11/08 12:42:18;;;;;;;8.50;3.20;;;13.40;75.70;;;;;;6273971;28;20031;-88
2021/11/08 12:45:23;;;;;;;5.13;2.70;;;13.40;73.10;;;;;;6255993;28;20060;-87
2021/11/08 12:48:32;;;;;;;7.40;3.40;;;13.60;73.20;;;;;;6254960;28;20039;-88
2021/11/08 12:51:32;;;;;;;8.80;3.90;;;13.60;73.40;;;;;;6267143;28;20051;-85
2021/11/08 12:54:57;;;;;;;8.02;3.95;;;13.30;74.40;;;;;;6269966;28;20038;-86
2021/11/08 12:57:58;;;;;;;7.93;2.95;;;12.70;91.70;;;;;;6254729;28;20390;-86
2021/11/08 13:01:00;;;;;;;7.57;3.17;;;12.60;91.60;;;;;;6252478;28;20035;-88
2021/11/08 13:04:09;;;;;;;5.53;3.42;;;12.70;72.20;;;;;;6247386;28;20032;-85
2021/11/08 13:07:11;;;;;;;10.43;4.30;;;12.50;78.80;;;;;;6250791;28;20097;-84
2021/11/08 13:10:25;;;;;;;9.35;4.28;;;12.20;89.10;;;;;;6265548;28;20473;-85
2021/11/08 13:13:26;;;;;;;9.50;3.55;;;12.40;87.00;;;;;;6285619;28;20036;-86
2021/11/08 13:16:38;;;;;;;10.73;4.40;;;12.60;92.90;;;;;;6276415;28;20355;-86
2021/11/08 13:19:53;;;;;;;7.25;3.35;;;12.60;89.80;;;;;;6261602;28;20466;-87
2021/11/08 13:23:05;;;;;;;8.70;2.92;;;12.60;94.20;;;;;;6255619;28;20036;-86
2021/11/08 13:26:06;;;;;;;7.90;3.70;;;12.40;90.90;;;;;;6262150;28;20029;-87
2021/11/08 13:29:18;;;;;;;6.70;3.22;;;12.40;93.80;;;;;;6254954;28;20033;-85
2021/11/08 13:32:18;;;;;;;7.20;3.17;;;12.60;92.90;;;;;;6245400;28;20466;-86
2021/11/08 13:35:25;;;;;;;8.38;3.30;;;12.30;92.70;;;;;;6278665;28;20035;-87
2021/11/08 13:38:28;;;;;;;8.32;2.88;;;12.50;76.40;;;;;;6266704;28;20029;-87
2021/11/08 13:41:30;;;;;;;9.52;2.90;;;12.60;92.00;;;;;;6277413;28;20063;-87
2021/11/08 13:44:31;;;;;;;6.93;3.05;;;;;;;;;;6251220;28;20043;-88
2021/11/08 13:47:43;;;;;;;6.85;3.33;;;12.80;77.20;;;;;;6287651;28;20054;-88
2021/11/08 13:50:44;;;;;;;5.97;3.53;;;;;;;;;;6253461;28;20058;-86
2021/11/08 13:53:50;;;;;;;7.68;3.50;;;;;;;;;;6283353;28;20041;-84
2021/11/08 13:56:55;;;;;;;6.10;3.30;;;12.60;92.40;;;;;;6304139;28;20036;-86
2021/11/08 13:59:56;;;;;;;5.57;3.17;;;12.80;93.10;;;;;;6250098;28;20115;-87
2021/11/08 14:02:56;;;;;;;7.22;3.50;;;12.20;94.10;;;;;;6249948;28;20042;-85
2021/11/08 14:05:57;;;;;;;8.45;4.32;;;12.40;82.20;;;;;;6252755;28;20036;-86
2021/11/08 14:08:58;;;;;;;169.65;109.78;;;11.70;94.00;;;;;;6260333;28;20032;-87
2021/11/08 14:12:01;;;;;;;6.75;4.18;;;11.70;77.30;;;;;;6283890;28;20097;-84
2021/11/08 14:15:01;;;;;;;;;;;11.30;78.50;;;;;;6269427;28;20029;-85
2021/11/08 14:18:02;;;;;;;4.53;2.88;;;;;;;;;;6277489;28;19951;-88
2021/11/08 14:21:07;;;;;;;6.10;3.40;;;11.40;79.30;;;;;;6297843;28;20032;-85
2021/11/08 14:24:10;;;;;;;7.07;3.95;;;11.60;92.20;;;;;;6272911;28;20039;-84
2021/11/08 14:27:19;;;;;;;7.47;4.07;;;11.50;84.20;;;;;;6244534;28;20052;-85
2021/11/08 14:30:21;;;;;;;8.60;3.80;;;11.50;83.10;;;;;;6248104;28;20064;-84
2021/11/08 14:33:21;;;;;;;11.85;6.88;;;11.20;95.00;;;;;;6277610;28;20074;-85
2021/11/08 14:36:27;;;;;;;33.47;13.02;;;11.20;82.00;;;;;;6249373;28;20418;-88
2021/11/08 14:39:29;;;;;;;43.50;17.73;;;11.20;82.90;;;;;;6265510;28;20041;-84
2021/11/08 14:42:36;;;;;;;16.58;6.50;;;11.20;84.00;;;;;;6248879;28;20032;-83
2021/11/08 14:45:37;;;;;;;8.75;5.10;;;11.10;85.10;;;;;;6266484;28;20047;-84
2021/11/08 14:48:39;;;;;;;6.43;3.70;;;11.10;83.90;;;;;;6266400;28;20163;-84
2021/11/08 14:51:39;;;;;;;6.40;3.70;;;11.10;85.30;;;;;;6267174;28;20059;-85
2021/11/08 14:54:40;;;;;;;9.18;3.88;;;11.20;87.20;;;;;;6270589;28;20055;-85
2021/11/08 14:57:41;;;;;;;6.45;3.92;;;11.00;89.30;;;;;;6263086;28;20040;-84
2021/11/08 15:00:42;;;;;;;10.40;4.88;;;11.10;88.70;;;;;;6275646;28;20028;-81
2021/11/08 15:03:43;;;;;;;7.63;3.97;;;11.50;88.20;;;;;;6275871;28;20032;-81
2021/11/08 15:07:02;;;;;;;10.52;3.53;;;11.10;87.50;;;;;;6287050;28;20044;-83
2021/11/08 15:10:08;;;;;;;5.50;3.40;;;11.20;86.10;;;;;;6269994;28;20077;-83
2021/11/08 15:13:09;;;;;;;8.05;3.97;;;11.20;89.00;;;;;;6276741;28;20066;-83
2021/11/08 15:16:10;;;;;;;7.40;3.47;;;11.20;90.10;;;;;;6292821;28;20032;-82
2021/11/08 15:19:11;;;;;;;6.55;4.05;;;11.10;88.70;;;;;;6266795;28;20045;-84
2021/11/08 15:22:11;;;;;;;9.55;6.45;;;10.90;87.90;;;;;;6266576;28;20032;-83
2021/11/08 15:25:37;;;;;;;6.70;5.35;;;10.50;96.40;;;;;;6282423;28;20024;-84
2021/11/08 15:28:42;;;;;;;3.80;2.75;;;10.40;98.00;;;;;;6264529;28;20429;-84
2021/11/08 15:31:43;;;;;;;7.63;3.58;;;10.40;90.60;;;;;;6246937;28;20151;-85
2021/11/08 15:34:45;;;;;;;8.13;4.28;;;10.70;91.50;;;;;;6258782;28;20033;-84
2021/11/08 15:37:51;;;;;;;7.40;4.00;;;10.10;90.90;;;;;;6254026;28;20380;-86
2021/11/08 15:40:52;;;;;;;11.65;4.15;;;9.80;98.40;;;;;;6275604;28;20150;-88
2021/11/08 15:43:52;;;;;;;9.05;4.85;;;10.90;91.40;;;;;;6270686;28;20450;-88
2021/11/08 15:46:54;;;;;;;7.55;3.72;;;;;;;;;;6275630;28;20045;-86
2021/11/08 15:49:54;;;;;;;7.93;4.07;;;9.50;99.70;;;;;;6266273;28;20131;-85
2021/11/08 15:52:55;;;;;;;6.43;3.60;;;;;;;;;;6266149;28;20033;-89
2021/11/08 15:55:56;;;;;;;8.45;3.50;;;9.30;99.90;;;;;;6265877;28;20028;-90
2021/11/08 15:58:57;;;;;;;10.70;5.53;;;;;;;;;;6251029;28;20040;-90
2021/11/08 16:01:58;;;;;;;8.20;5.05;;;8.90;99.90;;;;;;6262290;28;20076;-90
2021/11/08 16:04:59;;;;;;;7.70;3.97;;;;;;;;;;6255576;28;20040;-90
2021/11/08 16:08:05;;;;;;;9.60;5.65;;;8.50;95.30;;;;;;6267189;28;20040;-90
2021/11/08 16:11:06;;;;;;;9.75;5.13;;;8.20;99.90;;;;;;6263115;28;20036;-90
2021/11/08 16:14:07;;;;;;;11.02;4.70;;;;;;;;;;6259876;28;20062;-90
2021/11/08 16:17:08;;;;;;;8.82;4.28;;;8.00;99.90;;;;;;6272143;28;20044;-89
2021/11/08 16:20:09;;;;;;;5.43;3.45;;;;;;;;;;6257048;28;20287;-83
2021/11/08 16:23:10;;;;;;;9.68;4.05;;;7.80;99.90;;;;;;6281719;28;20025;-84
2021/11/08 16:26:11;;;;;;;8.68;3.55;;;;;;;;;;6240982;28;20048;-83
2021/11/08 16:29:12;;;;;;;8.45;3.78;;;;;;;;;;6293369;28;20080;-85
2021/11/08 16:32:32;;;;;;;9.20;4.50;;;7.90;99.90;;;;;;6280278;28;20024;-86
2021/11/08 16:35:37;;;;;;;9.88;4.80;;;7.50;99.90;;;;;;6284472;28;20032;-85
2021/11/08 16:38:39;;;;;;;32.10;16.13;;;;;;;;;;6249392;28;20080;-85
2021/11/08 16:41:40;;;;;;;22.83;11.40;;;;;;;;;;6268739;28;20359;-85
2021/11/08 16:44:41;;;;;;;16.25;9.13;;;;;;;;;;6283058;28;20458;-84
2021/11/08 16:47:42;;;;;;;15.23;7.32;;;6.90;99.90;;;;;;6264929;28;20051;-85
2021/11/08 16:50:42;;;;;;;9.95;6.45;;;6.80;99.90;;;;;;6268977;28;20370;-84
2021/11/08 16:53:44;;;;;;;10.35;7.18;;;;;;;;;;6252068;28;20041;-82
2021/11/08 16:56:45;;;;;;;13.98;8.30;;;;;;;;;;6285755;28;20032;-82
2021/11/08 16:59:48;;;;;;;14.93;10.70;;;;;;;;;;6291203;28;20032;-82
2021/11/08 17:02:49;;;;;;;9.23;5.78;;;6.30;99.90;;;;;;6278887;28;20028;-81
2021/11/08 17:06:03;;;;;;;10.20;5.68;;;;;;;;;;6285915;28;20035;-82
2021/11/08 17:09:34;;;;;;;10.13;5.53;;;;;;;;;;6320095;28;20027;-82
2021/11/08 17:15:47;;;;;;;10.20;5.15;;;6.20;99.90;;;;;;6287743;28;20032;-82
2021/11/08 17:18:48;;;;;;;14.15;5.95;;;;;;;;;;6302067;28;20067;-82
2021/11/08 17:21:49;;;;;;;13.50;7.20;;;5.80;99.90;;;;;;6298251;28;20068;-81
2021/11/08 17:24:50;;;;;;;11.65;6.35;;;;;;;;;;6261824;28;20382;-81
2021/11/08 17:27:54;;;;;;;12.60;6.20;;;5.90;99.90;;;;;;6278229;28;20098;-81
2021/11/08 17:30:54;;;;;;;12.38;5.97;;;5.50;99.90;;;;;;6265211;28;20449;-81
2021/11/08 17:33:56;;;;;;;16.15;9.27;;;;;;;;;;6301527;28;20085;-81
2021/11/08 17:36:56;;;;;;;16.58;8.18;;;5.80;99.90;;;;;;6298695;28;20052;-83
2021/11/08 17:39:57;;;;;;;10.20;6.13;;;;;;;;;;6254973;28;20032;-81
2021/11/08 17:42:58;;;;;;;8.45;5.03;;;5.50;99.90;;;;;;6285587;28;20032;-84
2021/11/08 17:45:59;;;;;;;11.50;5.47;;;5.30;99.90;;;;;;6244264;28;20187;-85
2021/11/08 17:49:00;;;;;;;13.68;6.35;;;5.20;99.90;;;;;;6260103;28;20048;-81
2021/11/08 17:52:01;;;;;;;14.70;7.75;;;;;;;;;;6279984;28;20432;-81
2021/11/08 17:55:03;;;;;;;12.77;6.22;;;5.10;99.90;;;;;;6284651;28;20094;-80
2021/11/08 17:58:03;;;;;;;10.05;5.88;;;5.30;99.90;;;;;;6290661;28;20669;-82
2021/11/08 18:01:05;;;;;;;9.07;5.32;;;;;;;;;;6297227;28;20032;-81
2021/11/08 18:04:05;;;;;;;12.63;5.80;;;4.90;99.90;;;;;;6299840;28;20426;-80
2021/11/08 18:07:06;;;;;;;18.85;6.65;;;4.70;99.90;;;;;;6318961;28;20058;-85
2021/11/08 18:10:08;;;;;;;16.35;6.38;;;4.70;99.90;;;;;;6249874;28;20118;-87
2021/11/08 18:13:09;;;;;;;16.05;7.57;;;;;;;;;;6245320;28;20058;-79
2021/11/08 18:16:09;;;;;;;16.60;6.65;;;4.60;99.90;;;;;;6276477;28;20099;-81
2021/11/08 18:19:10;;;;;;;13.07;6.13;;;;;;;;;;6276780;28;20043;-80
2021/11/08 18:26:21;;;;;;;13.25;6.32;;;;;;;;;;6276807;28;20500;-81